createdAt,value
2019-01-15T00:01:18.360Z,926.57
2019-01-15T00:02:50.182Z,926.71
2019-01-15T00:04:21.995Z,926.72
2019-01-15T00:05:53.812Z,926.81
2019-01-15T00:07:25.628Z,926.85
2019-01-15T00:08:57.445Z,926.89
2019-01-15T00:10:29.262Z,926.86
2019-01-15T00:12:07.646Z,926.92
2019-01-15T00:13:32.896Z,926.95
2019-01-15T00:15:04.714Z,926.91
2019-01-15T00:16:36.529Z,926.92
2019-01-15T00:18:08.346Z,926.90
2019-01-15T00:19:40.162Z,926.82
2019-01-15T00:21:11.980Z,926.83
2019-01-15T00:22:43.796Z,926.83
2019-01-15T00:24:15.614Z,926.81
2019-01-15T00:25:47.734Z,926.81
2019-01-15T00:27:19.244Z,926.83
2019-01-15T00:28:51.062Z,926.90
2019-01-15T00:30:22.978Z,926.89
2019-01-15T00:31:54.704Z,926.95
2019-01-15T00:33:26.515Z,926.98
2019-01-15T00:34:58.329Z,926.97
2019-01-15T00:36:30.145Z,927.03
2019-01-15T00:38:01.962Z,927.08
2019-01-15T00:39:33.778Z,927.12
2019-01-15T00:41:05.595Z,927.18
2019-01-15T00:42:37.410Z,927.20
2019-01-15T00:44:09.228Z,927.24
2019-01-15T00:45:41.047Z,927.25
2019-01-15T00:47:12.860Z,927.30
2019-01-15T00:48:44.927Z,927.35
2019-01-15T00:50:16.495Z,927.41
2019-01-15T00:53:20.127Z,927.38
2019-01-15T00:54:51.944Z,927.32
2019-01-15T00:56:23.760Z,927.31
2019-01-15T00:57:55.577Z,927.35
2019-01-15T00:59:27.393Z,927.30
2019-01-15T01:00:59.210Z,927.32
2019-01-15T01:02:31.027Z,927.28
2019-01-15T01:04:03.148Z,927.30
2019-01-15T01:05:34.677Z,927.28
2019-01-15T01:07:06.576Z,927.28
2019-01-15T01:08:38.293Z,927.22
2019-01-15T01:10:10.109Z,927.20
2019-01-15T01:11:41.925Z,927.18
2019-01-15T01:13:13.740Z,927.20
2019-01-15T01:14:45.557Z,927.25
2019-01-15T01:16:17.374Z,927.28
2019-01-15T01:17:49.191Z,927.31
2019-01-15T01:19:21.007Z,927.35
2019-01-15T01:20:52.824Z,927.36
2019-01-15T01:22:24.639Z,927.40
2019-01-15T01:23:56.456Z,927.44
2019-01-15T01:25:28.675Z,927.48
2019-01-15T01:27:00.093Z,927.51
2019-01-15T01:28:31.906Z,927.44
2019-01-15T01:30:03.742Z,927.45
2019-01-15T01:31:35.571Z,927.36
2019-01-15T01:33:07.357Z,927.36
2019-01-15T01:34:39.187Z,927.35
2019-01-15T01:36:10.990Z,927.43
2019-01-15T01:37:42.807Z,927.46
2019-01-15T01:39:14.622Z,927.48
2019-01-15T01:40:46.440Z,927.49
2019-01-15T01:42:18.256Z,927.50
2019-01-15T01:43:50.204Z,927.50
2019-01-15T01:45:21.888Z,927.49
2019-01-15T01:46:53.706Z,927.50
2019-01-15T01:48:25.522Z,927.50
2019-01-15T01:49:57.353Z,927.48
2019-01-15T01:51:29.156Z,927.50
2019-01-15T01:53:00.973Z,927.46
2019-01-15T01:54:32.790Z,927.44
2019-01-15T01:56:04.857Z,927.45
2019-01-15T01:57:36.423Z,927.45
2019-01-15T01:59:08.238Z,927.49
2019-01-15T02:00:40.073Z,927.51
2019-01-15T02:02:11.973Z,927.52
2019-01-15T02:03:43.710Z,927.55
2019-01-15T02:05:15.506Z,927.57
2019-01-15T02:06:47.329Z,927.57
2019-01-15T02:08:19.139Z,927.53
2019-01-15T02:09:50.954Z,927.52
2019-01-15T02:11:22.851Z,927.53
2019-01-15T02:12:54.591Z,927.50
2019-01-15T02:14:26.405Z,927.51
2019-01-15T02:15:58.221Z,927.51
2019-01-15T02:17:30.036Z,927.42
2019-01-15T02:19:01.853Z,927.42
2019-01-15T02:20:33.769Z,927.44
2019-01-15T02:22:05.486Z,927.44
2019-01-15T02:23:37.334Z,927.46
2019-01-15T02:25:09.121Z,927.49
2019-01-15T02:26:41.186Z,927.44
2019-01-15T02:28:12.755Z,927.43
2019-01-15T02:29:44.565Z,927.38
2019-01-15T02:31:16.383Z,927.33
2019-01-15T02:32:48.504Z,927.31
2019-01-15T02:34:20.015Z,927.32
2019-01-15T02:35:51.831Z,927.27
2019-01-15T02:37:23.664Z,927.22
2019-01-15T02:38:55.563Z,927.19
2019-01-15T02:40:27.278Z,927.18
2019-01-15T02:41:59.097Z,927.17
2019-01-15T02:43:30.910Z,927.12
2019-01-15T02:45:02.726Z,927.14
2019-01-15T02:46:34.554Z,927.14
2019-01-15T02:48:06.358Z,927.12
2019-01-15T02:49:38.174Z,927.10
2019-01-15T02:51:09.990Z,927.06
2019-01-15T02:52:41.807Z,927.01
2019-01-15T02:54:13.622Z,926.94
2019-01-15T02:55:45.440Z,926.91
2019-01-15T02:57:17.603Z,926.84
2019-01-15T02:58:49.270Z,926.84
2019-01-15T03:00:20.889Z,926.84
2019-01-15T03:01:52.702Z,926.87
2019-01-15T03:03:24.518Z,926.86
2019-01-15T03:04:56.333Z,926.87
2019-01-15T03:06:28.146Z,926.86
2019-01-15T03:08:00.000Z,926.84
2019-01-15T03:09:31.788Z,926.78
2019-01-15T03:11:03.595Z,926.74
2019-01-15T03:12:35.409Z,926.72
2019-01-15T03:14:07.223Z,926.67
2019-01-15T03:15:39.145Z,926.66
2019-01-15T03:17:10.854Z,926.61
2019-01-15T03:18:42.670Z,926.60
2019-01-15T03:20:14.489Z,926.56
2019-01-15T03:21:46.403Z,926.50
2019-01-15T03:23:18.118Z,926.52
2019-01-15T03:26:21.748Z,926.55
2019-01-15T03:27:53.637Z,926.56
